createdAt,value
2022-09-23T00:02:06.975Z,5.70
2022-09-23T00:12:11.189Z,5.20
2022-09-23T00:22:13.906Z,6.43
2022-09-23T00:32:15.557Z,4.57
2022-09-23T00:42:23.143Z,4.70
2022-09-23T00:52:25.103Z,4.10
2022-09-23T01:02:28.171Z,4.10
2022-09-23T01:12:59.692Z,4.37
2022-09-23T01:23:33.132Z,4.23
2022-09-23T01:33:43.918Z,4.33
2022-09-23T01:44:05.416Z,4.10
2022-09-23T01:54:22.457Z,4.27
2022-09-23T02:04:48.033Z,4.20
2022-09-23T02:14:57.312Z,4.10
2022-09-23T02:24:59.386Z,4.87
2022-09-23T02:35:14.223Z,4.53
2022-09-23T02:45:16.476Z,4.60
2022-09-23T02:55:23.372Z,4.00
2022-09-23T03:05:30.222Z,4.43
2022-09-23T03:15:43.417Z,4.77
2022-09-23T03:25:48.447Z,4.23
2022-09-23T03:36:16.749Z,5.00
2022-09-23T03:46:18.576Z,5.07
2022-09-23T03:56:20.192Z,5.20
2022-09-23T04:06:25.193Z,5.80
2022-09-23T04:16:27.228Z,7.37
2022-09-23T04:26:29.692Z,7.80
2022-09-23T04:36:31.353Z,7.73
2022-09-23T04:46:33.471Z,7.20
2022-09-23T04:56:35.363Z,5.50
2022-09-23T05:06:37.390Z,6.60
2022-09-23T05:16:39.349Z,7.27
2022-09-23T05:26:41.579Z,7.87
2022-09-23T05:36:43.597Z,8.30
2022-09-23T05:46:45.390Z,10.67
2022-09-23T05:56:47.533Z,10.60
2022-09-23T06:06:49.177Z,12.73
2022-09-23T06:16:50.762Z,14.37
2022-09-23T06:26:52.355Z,9.97
2022-09-23T06:36:55.522Z,13.80
2022-09-23T06:46:57.177Z,12.73
2022-09-23T06:56:59.025Z,11.03
2022-09-23T07:07:00.736Z,12.77
2022-09-23T07:17:03.632Z,13.97
2022-09-23T07:27:05.385Z,13.47
2022-09-23T07:37:06.996Z,13.83
2022-09-23T07:47:08.631Z,13.33
2022-09-23T07:57:10.232Z,13.10
2022-09-23T08:07:13.184Z,12.13
2022-09-23T08:17:14.904Z,11.63
2022-09-23T08:27:16.553Z,11.13
2022-09-23T08:37:18.175Z,10.47
2022-09-23T08:47:54.619Z,10.73
2022-09-23T08:58:23.817Z,10.50
2022-09-23T09:08:29.772Z,9.40
2022-09-23T09:18:33.970Z,9.33
2022-09-23T09:28:41.688Z,11.40
2022-09-23T09:38:43.363Z,32.10
2022-09-23T09:48:54.728Z,10.67
2022-09-23T09:59:02.102Z,7.23
2022-09-23T10:09:11.669Z,6.53
2022-09-23T10:19:15.783Z,5.30
2022-09-23T10:29:25.952Z,4.80
2022-09-23T10:39:47.003Z,4.47
2022-09-23T10:50:09.899Z,4.70
2022-09-23T11:00:17.524Z,3.97
2022-09-23T11:11:01.954Z,4.10
2022-09-23T11:21:35.478Z,4.20
2022-09-23T11:32:15.675Z,3.47
2022-09-23T11:42:24.205Z,3.33
2022-09-23T11:52:30.129Z,3.00
2022-09-23T12:03:06.133Z,3.60
2022-09-23T12:13:21.371Z,2.60
2022-09-23T12:24:03.169Z,2.70
2022-09-23T12:34:21.216Z,2.40
2022-09-23T12:44:23.271Z,2.27
2022-09-23T12:54:25.032Z,2.90
2022-09-23T13:05:01.562Z,2.77
2022-09-23T13:15:12.454Z,2.57
2022-09-23T13:25:22.140Z,2.53
2022-09-23T13:35:41.801Z,2.67
2022-09-23T13:45:44.133Z,2.77
2022-09-23T13:55:51.670Z,2.60
2022-09-23T14:05:59.381Z,2.50
2022-09-23T14:16:04.128Z,3.00
2022-09-23T14:26:05.858Z,2.40
2022-09-23T14:36:38.223Z,2.20
2022-09-23T14:46:56.534Z,2.00
2022-09-23T14:56:59.072Z,2.00
2022-09-23T15:07:07.654Z,2.07
2022-09-23T15:17:22.429Z,2.20
2022-09-23T15:27:32.953Z,2.47
2022-09-23T15:37:36.507Z,2.03
2022-09-23T15:47:38.183Z,2.43
2022-09-23T15:57:39.829Z,3.07
2022-09-23T16:07:41.457Z,2.53
2022-09-23T16:17:44.738Z,2.60
2022-09-23T16:27:46.773Z,4.03
2022-09-23T16:37:48.738Z,4.37
2022-09-23T16:47:51.830Z,4.10
2022-09-23T16:57:54.382Z,5.40
2022-09-23T17:07:55.984Z,6.67
2022-09-23T17:17:57.601Z,20.53
2022-09-23T17:28:00.088Z,12.43
2022-09-23T17:38:01.691Z,7.53
2022-09-23T17:48:03.412Z,6.60
2022-09-23T17:58:05.020Z,6.70
2022-09-23T18:08:06.624Z,6.50
2022-09-23T18:18:08.595Z,6.73
2022-09-23T18:28:10.210Z,6.83
2022-09-23T18:38:12.198Z,7.07
2022-09-23T18:48:32.607Z,7.33
2022-09-23T18:58:34.408Z,7.30
2022-09-23T19:08:37.245Z,7.73
2022-09-23T19:18:41.519Z,7.67
2022-09-23T19:28:48.936Z,11.30
2022-09-23T19:38:54.107Z,8.23
2022-09-23T19:48:55.879Z,7.33
2022-09-23T19:58:58.411Z,7.07
2022-09-23T20:09:01.210Z,7.00
2022-09-23T20:19:04.326Z,7.60
2022-09-23T20:29:06.618Z,9.00
2022-09-23T20:39:09.849Z,8.23
2022-09-23T20:49:11.478Z,7.33
2022-09-23T20:59:14.892Z,8.27
2022-09-23T21:09:16.596Z,8.60
2022-09-23T21:19:19.275Z,8.23
2022-09-23T21:29:20.925Z,7.83
2022-09-23T21:39:22.564Z,7.30
2022-09-23T21:49:24.171Z,7.30
2022-09-23T21:59:25.775Z,7.70
2022-09-23T22:09:27.421Z,7.00
2022-09-23T22:19:44.293Z,7.33
2022-09-23T22:30:06.532Z,8.13
2022-09-23T22:40:11.036Z,7.30
2022-09-23T22:50:14.291Z,7.20
2022-09-23T23:00:15.946Z,7.53
2022-09-23T23:10:17.620Z,6.37
2022-09-23T23:20:19.994Z,7.23
2022-09-23T23:30:25.399Z,6.33
2022-09-23T23:40:27.922Z,6.50
2022-09-23T23:50:29.569Z,6.87
